sensor_id;sensor_type;location;lat;lon;timestamp;P1;durP1;ratioP1;P2;durP2;ratioP2
55663;SDS011;41540;57.880;12.164;2023-02-24T00:01:15;7.30;;;2.35;;
55663;SDS011;41540;57.880;12.164;2023-02-24T00:11:23;2.10;;;1.88;;
55663;SDS011;41540;57.880;12.164;2023-02-24T00:21:24;4.70;;;2.45;;
55663;SDS011;41540;57.880;12.164;2023-02-24T00:31:25;2.47;;;2.20;;
55663;SDS011;41540;57.880;12.164;2023-02-24T00:51:29;3.80;;;3.50;;
55663;SDS011;41540;57.880;12.164;2023-02-24T01:01:32;4.30;;;3.90;;
55663;SDS011;41540;57.880;12.164;2023-02-24T01:11:34;3.53;;;2.88;;
55663;SDS011;41540;57.880;12.164;2023-02-24T01:21:53;5.30;;;3.08;;
55663;SDS011;41540;57.880;12.164;2023-02-24T01:31:54;6.45;;;2.80;;
55663;SDS011;41540;57.880;12.164;2023-02-24T01:42:02;5.80;;;2.20;;
55663;SDS011;41540;57.880;12.164;2023-02-24T01:52:09;8.68;;;3.33;;
55663;SDS011;41540;57.880;12.164;2023-02-24T02:02:11;8.75;;;2.90;;
55663;SDS011;41540;57.880;12.164;2023-02-24T02:12:12;7.88;;;1.80;;
55663;SDS011;41540;57.880;12.164;2023-02-24T02:42:40;13.93;;;3.45;;
55663;SDS011;41540;57.880;12.164;2023-02-24T02:52:44;2.13;;;1.70;;
55663;SDS011;41540;57.880;12.164;2023-02-24T03:02:47;4.80;;;2.30;;
55663;SDS011;41540;57.880;12.164;2023-02-24T03:12:51;1.55;;;1.45;;
55663;SDS011;41540;57.880;12.164;2023-02-24T03:22:54;3.53;;;1.23;;
55663;SDS011;41540;57.880;12.164;2023-02-24T03:33:04;2.17;;;1.50;;
55663;SDS011;41540;57.880;12.164;2023-02-24T03:43:13;3.08;;;1.40;;
55663;SDS011;41540;57.880;12.164;2023-02-24T03:53:23;0.80;;;0.80;;
55663;SDS011;41540;57.880;12.164;2023-02-24T04:13:32;0.75;;;0.75;;
55663;SDS011;41540;57.880;12.164;2023-02-24T04:23:36;0.50;;;0.50;;
55663;SDS011;41540;57.880;12.164;2023-02-24T04:33:38;0.70;;;0.70;;
55663;SDS011;41540;57.880;12.164;2023-02-24T04:43:38;0.70;;;0.70;;
55663;SDS011;41540;57.880;12.164;2023-02-24T04:53:39;0.65;;;0.65;;
55663;SDS011;41540;57.880;12.164;2023-02-24T05:03:40;0.45;;;0.45;;
55663;SDS011;41540;57.880;12.164;2023-02-24T05:13:44;0.50;;;0.50;;
55663;SDS011;41540;57.880;12.164;2023-02-24T05:23:45;0.50;;;0.50;;
55663;SDS011;41540;57.880;12.164;2023-02-24T05:33:47;0.40;;;0.40;;
55663;SDS011;41540;57.880;12.164;2023-02-24T05:43:52;0.70;;;0.70;;
55663;SDS011;41540;57.880;12.164;2023-02-24T05:53:53;0.63;;;0.50;;
55663;SDS011;41540;57.880;12.164;2023-02-24T07:08:02;0.50;;;0.50;;
55663;SDS011;41540;57.880;12.164;2023-02-24T08:12:31;0.50;;;0.50;;
55663;SDS011;41540;57.880;12.164;2023-02-24T08:45:07;0.50;;;0.50;;
55663;SDS011;41540;57.880;12.164;2023-02-24T09:28:15;0.82;;;0.82;;
55663;SDS011;41540;57.880;12.164;2023-02-24T09:38:53;14.32;;;2.28;;
55663;SDS011;41540;57.880;12.164;2023-02-24T12:10:05;0.50;;;0.50;;
55663;SDS011;41540;57.880;12.164;2023-02-24T13:37:02;0.40;;;0.40;;
55663;SDS011;41540;57.880;12.164;2023-02-24T15:46:32;0.57;;;0.57;;
55663;SDS011;41540;57.880;12.164;2023-02-24T19:01:22;1.85;;;1.67;;
55663;SDS011;41540;57.880;12.164;2023-02-24T19:11:32;2.00;;;1.88;;
55663;SDS011;41540;57.880;12.164;2023-02-24T20:04:57;2.20;;;1.83;;
55663;SDS011;41540;57.880;12.164;2023-02-24T20:15:00;1.65;;;1.40;;
55663;SDS011;41540;57.880;12.164;2023-02-24T20:25:00;0.70;;;0.70;;
55663;SDS011;41540;57.880;12.164;2023-02-24T20:35:00;8.85;;;1.05;;
55663;SDS011;41540;57.880;12.164;2023-02-24T21:17:36;0.75;;;0.75;;
55663;SDS011;41540;57.880;12.164;2023-02-24T21:38:03;1.75;;;1.65;;
55663;SDS011;41540;57.880;12.164;2023-02-24T21:48:04;2.60;;;1.10;;
55663;SDS011;41540;57.880;12.164;2023-02-24T21:58:05;1.00;;;0.90;;
55663;SDS011;41540;57.880;12.164;2023-02-24T22:08:06;0.98;;;0.70;;
55663;SDS011;41540;57.880;12.164;2023-02-24T22:18:06;0.50;;;0.50;;
55663;SDS011;41540;57.880;12.164;2023-02-24T22:28:06;0.47;;;0.47;;
55663;SDS011;41540;57.880;12.164;2023-02-24T22:38:07;0.50;;;0.50;;
55663;SDS011;41540;57.880;12.164;2023-02-24T22:48:07;2.53;;;1.48;;
55663;SDS011;41540;57.880;12.164;2023-02-24T22:58:07;0.70;;;0.70;;
55663;SDS011;41540;57.880;12.164;2023-02-24T23:08:08;2.60;;;1.10;;
55663;SDS011;41540;57.880;12.164;2023-02-24T23:18:09;2.22;;;1.00;;
55663;SDS011;41540;57.880;12.164;2023-02-24T23:28:09;0.80;;;0.80;;
55663;SDS011;41540;57.880;12.164;2023-02-24T23:38:10;1.17;;;1.08;;
55663;SDS011;41540;57.880;12.164;2023-02-24T23:48:11;0.50;;;0.50;;
55663;SDS011;41540;57.880;12.164;2023-02-24T23:58:11;1.38;;;0.70;;
